Главная страница
METAR-TAF:

METAR-TAF

Аэропорты :

Уагадугу, Буркина-Фасо

широта: 12-21N, долгота: 001-31W, высота над уровнем моря: 316 м

Текущие метеонаблюдения

Эта сводка был подготовлена 50 минут назад, в 11:00 UTC
Ветер 10 Узел от западный-юго-западный
Температура 33°C
Влажность 46%
Давление 1013 hPa
Видимость 10 км и более
Нет облачности ниже 1500 м, и нет кучево-дождевой облачности

METAR: DFFD 211100Z 24010KT CAVOK 33/20 Q1013 NOSIG

Время: 11:50 (11:50 UTC)

Прогноз

Эта сводка был подготовлена 50 минут назад, в 11:00 UTC
Прогноз действительный с 21-го 12 UTC до 22-го 18 UTC
Ветер 10 Узел от западный-юго-западный
Видимость 10 км и более
небольшая облачность на высоте 2300 фута
Вероятность 30% :
временами
С 21-го 14 UTC до 22-го 02 UTC
Видимость: 4000 м
Отдельные облака на высоте 2000 фута
небольшая облачность на высоте 3600 фута, Кучево-дождевые.
гроза, дождь

TAF: DFFD 211100Z 2112/2218 24010KT 9999 FEW023 PROB30 TEMPO 2114/2202 4000 TSRA SCT020 FEW036CB

Метеонаблюдения и прогнозы для более 4000 аэропортов (сводки METAR и TAF).

Имеющиеся станции представлены на карте желтыми и красными точками.

Чтобы увидеть название станции, наведите на нее мышь.

Затем щелкните, чтобы увидеть метеонаблюдения и метеопрогнозы.

Управление картой: чтобы увеличить масштаб, щелкните зеленые кнопки с черным крестиком; чтобы уменьшить масштаб, щелкните зеленую кнопку с тире; для просмотра соседних карт щелкайте зеленые стрелки.


METAR-TAF: